createdAt,value
2022-08-04T00:00:17.354Z,20.40
2022-08-04T00:06:17.004Z,20.40
2022-08-04T00:11:23.618Z,20.34
2022-08-04T00:16:32.929Z,20.32
2022-08-04T00:21:45.009Z,20.26
2022-08-04T00:26:56.218Z,20.24
2022-08-04T00:32:00.053Z,20.20
2022-08-04T00:37:01.906Z,20.15
2022-08-04T00:42:13.298Z,20.14
2022-08-04T00:47:32.269Z,20.13
2022-08-04T00:52:46.692Z,20.11
2022-08-04T00:58:08.118Z,20.08
2022-08-04T01:03:18.257Z,20.06
2022-08-04T01:09:10.959Z,20.02
2022-08-04T01:14:44.695Z,19.99
2022-08-04T01:20:02.249Z,19.98
2022-08-04T01:25:32.586Z,19.94
2022-08-04T01:30:38.072Z,19.90
2022-08-04T01:35:55.609Z,19.91
2022-08-04T01:41:03.094Z,19.90
2022-08-04T01:46:13.491Z,19.87
2022-08-04T01:51:15.204Z,19.85
2022-08-04T01:56:18.559Z,19.82
2022-08-04T02:01:20.567Z,19.80
2022-08-04T02:06:27.580Z,19.79
2022-08-04T02:11:36.921Z,19.75
2022-08-04T02:16:52.718Z,19.74
2022-08-04T02:22:06.514Z,19.72
2022-08-04T02:27:11.220Z,19.69
2022-08-04T02:32:31.781Z,19.66
2022-08-04T02:37:34.303Z,19.61
2022-08-04T02:42:40.865Z,19.59
2022-08-04T02:48:08.166Z,19.57
2022-08-04T02:53:15.433Z,19.55
2022-08-04T02:58:20.315Z,19.54
2022-08-04T03:03:35.154Z,19.52
2022-08-04T03:09:15.141Z,19.49
2022-08-04T03:14:47.695Z,19.49
2022-08-04T03:20:32.603Z,19.49
2022-08-04T03:26:12.003Z,19.49
2022-08-04T03:31:35.808Z,19.49
2022-08-04T03:37:03.959Z,19.51
2022-08-04T03:42:29.960Z,19.51
2022-08-04T03:47:51.967Z,19.85
2022-08-04T03:53:24.589Z,20.16
2022-08-04T03:58:43.771Z,19.95
2022-08-04T04:04:03.136Z,19.86
2022-08-04T04:09:23.292Z,19.84
2022-08-04T04:14:52.898Z,19.84
2022-08-04T04:20:19.704Z,19.85
2022-08-04T04:25:26.284Z,19.90
2022-08-04T04:31:02.981Z,19.95
2022-08-04T04:36:07.866Z,20.01
2022-08-04T04:41:35.449Z,20.07
2022-08-04T04:47:10.086Z,20.11
2022-08-04T04:52:42.470Z,20.21
2022-08-04T04:57:53.548Z,20.28
2022-08-04T05:03:00.519Z,20.39
2022-08-04T05:08:43.792Z,20.49
2022-08-04T05:14:35.306Z,20.55
2022-08-04T05:19:24.508Z,20.66
2022-08-04T05:24:29.162Z,20.73
2022-08-04T05:29:46.623Z,20.84
2022-08-04T05:34:57.609Z,20.92
2022-08-04T05:40:05.013Z,20.96
2022-08-04T05:45:09.837Z,21.07
2022-08-04T05:50:16.457Z,21.19
2022-08-04T05:55:57.196Z,21.29
2022-08-04T06:00:43.298Z,21.35
2022-08-04T06:05:57.831Z,21.46
2022-08-04T06:11:04.175Z,21.58
2022-08-04T06:16:06.939Z,21.74
2022-08-04T06:21:16.454Z,21.93
2022-08-04T06:26:21.680Z,22.06
2022-08-04T06:32:28.386Z,22.18
2022-08-04T06:37:43.054Z,22.34
2022-08-04T06:42:49.837Z,22.54
2022-08-04T06:47:51.933Z,22.73
2022-08-04T06:52:59.394Z,22.88
2022-08-04T06:58:03.544Z,23.01
2022-08-04T07:03:07.176Z,23.17
2022-08-04T07:08:10.705Z,23.28
2022-08-04T07:13:17.298Z,23.41
2022-08-04T07:18:21.192Z,23.54
2022-08-04T07:23:24.636Z,23.69
2022-08-04T07:28:31.026Z,23.90
2022-08-04T07:33:37.373Z,24.02
2022-08-04T07:38:49.732Z,24.16
2022-08-04T07:43:54.926Z,24.29
2022-08-04T07:48:58.421Z,24.42
2022-08-04T07:54:00.698Z,24.57
2022-08-04T07:59:05.147Z,24.67
2022-08-04T08:04:11.679Z,24.84
2022-08-04T08:09:18.792Z,24.91
2022-08-04T08:14:23.627Z,25.11
2022-08-04T08:19:25.742Z,25.27
2022-08-04T08:24:33.804Z,25.38
2022-08-04T08:29:36.220Z,25.54
2022-08-04T08:34:41.924Z,25.66
2022-08-04T08:40:04.586Z,25.70
2022-08-04T08:45:36.357Z,25.93
2022-08-04T08:50:50.806Z,26.15
2022-08-04T08:56:30.941Z,26.37
2022-08-04T09:02:16.715Z,26.63
2022-08-04T09:07:58.492Z,26.86
2022-08-04T09:13:06.562Z,27.05
2022-08-04T09:18:50.897Z,27.23
2022-08-04T09:24:35.138Z,27.49
2022-08-04T09:29:47.857Z,27.79
2022-08-04T09:35:14.957Z,27.85
2022-08-04T09:40:31.743Z,27.97
2022-08-04T09:45:55.345Z,28.01
2022-08-04T09:51:00.103Z,28.17
2022-08-04T09:56:17.482Z,28.30
2022-08-04T10:01:26.604Z,28.39
2022-08-04T10:06:32.867Z,28.43
2022-08-04T10:11:56.270Z,28.42
2022-08-04T10:17:52.038Z,28.43
2022-08-04T10:23:18.261Z,28.62
2022-08-04T10:28:23.974Z,28.81
2022-08-04T10:33:28.577Z,28.91
2022-08-04T10:38:44.899Z,29.09
2022-08-04T10:44:06.648Z,29.22
2022-08-04T10:49:26.221Z,29.44
2022-08-04T10:54:48.285Z,29.62
2022-08-04T11:00:03.384Z,29.72
2022-08-04T11:05:12.284Z,29.82
2022-08-04T11:10:22.985Z,29.96
2022-08-04T11:15:45.157Z,30.05
2022-08-04T11:21:04.332Z,30.19
2022-08-04T11:26:32.259Z,30.30
2022-08-04T11:31:40.640Z,30.53
2022-08-04T11:37:30.111Z,30.92
2022-08-04T11:42:43.307Z,30.96
2022-08-04T11:48:05.251Z,31.22
2022-08-04T11:53:08.009Z,31.59
2022-08-04T11:58:10.350Z,31.82
2022-08-04T12:03:29.364Z,32.07
2022-08-04T12:08:51.846Z,32.05
2022-08-04T12:14:20.937Z,32.27
2022-08-04T12:20:04.213Z,32.68
2022-08-04T12:25:14.481Z,33.10
2022-08-04T12:30:58.084Z,33.64
2022-08-04T12:36:10.658Z,33.94
2022-08-04T12:41:19.451Z,34.57
2022-08-04T12:46:26.115Z,35.01
2022-08-04T12:52:05.666Z,35.37
2022-08-04T12:56:57.544Z,35.33
2022-08-04T13:02:08.509Z,34.24
2022-08-04T13:07:16.877Z,33.36
2022-08-04T13:12:31.985Z,32.97
2022-08-04T13:17:54.080Z,32.92
2022-08-04T13:23:05.918Z,32.47
2022-08-04T13:28:19.842Z,31.89
2022-08-04T13:33:23.724Z,31.08
2022-08-04T13:38:28.745Z,30.21
2022-08-04T13:44:16.623Z,29.54
2022-08-04T13:49:38.017Z,28.98
2022-08-04T13:54:46.648Z,28.34
2022-08-04T13:59:59.183Z,27.66
2022-08-04T14:05:27.986Z,27.07
2022-08-04T14:10:34.325Z,26.81
2022-08-04T14:16:02.233Z,26.77
2022-08-04T14:21:11.489Z,26.38
2022-08-04T14:26:15.299Z,26.10
2022-08-04T14:31:23.731Z,26.02
2022-08-04T14:36:27.537Z,25.93
2022-08-04T14:41:44.979Z,25.90
2022-08-04T14:46:54.977Z,25.64
2022-08-04T14:52:03.402Z,26.13
2022-08-04T14:57:11.882Z,26.35
2022-08-04T15:02:15.385Z,27.48
2022-08-04T15:07:20.746Z,30.70
2022-08-04T15:12:23.331Z,29.38
2022-08-04T15:17:30.524Z,29.65
2022-08-04T15:22:35.255Z,31.45
2022-08-04T15:27:40.281Z,32.70
2022-08-04T15:32:47.602Z,34.04
2022-08-04T15:37:58.541Z,34.26
2022-08-04T15:43:20.303Z,33.76
2022-08-04T15:48:26.573Z,35.05
2022-08-04T15:54:03.428Z,35.76
2022-08-04T15:59:05.986Z,35.80
2022-08-04T16:04:22.841Z,36.35
2022-08-04T16:09:45.374Z,36.42
2022-08-04T16:14:48.225Z,36.55
2022-08-04T16:20:02.097Z,36.76
2022-08-04T16:25:07.482Z,36.63
2022-08-04T16:30:15.115Z,34.70
2022-08-04T16:35:26.364Z,33.85
2022-08-04T16:40:33.815Z,32.23
2022-08-04T16:45:41.286Z,30.86
2022-08-04T16:50:55.593Z,30.03
2022-08-04T16:55:58.139Z,29.44
2022-08-04T17:01:32.633Z,28.80
2022-08-04T17:06:41.494Z,28.54
2022-08-04T17:11:50.200Z,28.19
2022-08-04T17:16:53.365Z,27.89
2022-08-04T17:22:04.261Z,27.46
2022-08-04T17:28:06.109Z,26.81
2022-08-04T17:32:34.764Z,26.59
2022-08-04T17:37:53.075Z,26.09
2022-08-04T17:44:02.979Z,25.53
2022-08-04T17:48:29.104Z,25.21
2022-08-04T17:54:01.797Z,25.06
2022-08-04T17:59:55.695Z,24.78
2022-08-04T18:05:06.273Z,24.70
2022-08-04T18:10:30.611Z,24.55
2022-08-04T18:15:44.140Z,24.33
2022-08-04T18:20:50.179Z,24.03
2022-08-04T18:25:52.468Z,23.83
2022-08-04T18:30:55.552Z,23.81
2022-08-04T18:36:33.610Z,23.75
2022-08-04T18:41:25.291Z,23.54
2022-08-04T18:46:30.822Z,23.40
2022-08-04T18:51:32.934Z,23.09
2022-08-04T18:56:35.014Z,22.99
2022-08-04T19:02:17.520Z,22.88
2022-08-04T19:07:29.207Z,22.73
2022-08-04T19:12:32.526Z,22.47
2022-08-04T19:17:53.829Z,22.35
2022-08-04T19:24:29.163Z,22.23
2022-08-04T19:28:20.857Z,22.03
2022-08-04T19:33:25.581Z,21.93
2022-08-04T19:38:34.964Z,21.85
2022-08-04T19:43:38.749Z,21.73
2022-08-04T19:54:23.527Z,21.45
2022-08-04T19:59:28.197Z,21.35
2022-08-04T20:04:34.213Z,21.33
2022-08-04T20:09:38.537Z,21.24
2022-08-04T20:14:42.560Z,21.11
2022-08-04T20:19:51.429Z,20.94
2022-08-04T20:30:16.342Z,20.75
2022-08-04T20:35:26.778Z,21.18
2022-08-04T20:40:32.040Z,20.98
2022-08-04T20:45:56.635Z,20.75
2022-08-04T20:51:04.810Z,20.55
2022-08-04T20:56:06.844Z,20.45
2022-08-04T21:01:14.475Z,20.33
2022-08-04T21:06:18.739Z,20.20
2022-08-04T21:11:32.904Z,20.13
2022-08-04T21:16:54.768Z,20.06
2022-08-04T21:21:58.233Z,19.93
2022-08-04T21:27:06.279Z,19.91
2022-08-04T21:32:11.494Z,19.86
2022-08-04T21:37:21.578Z,19.82
2022-08-04T21:42:29.256Z,19.78
2022-08-04T21:47:45.975Z,19.74
2022-08-04T21:52:53.274Z,19.65
2022-08-04T21:57:56.679Z,19.64
2022-08-04T22:03:03.361Z,19.62
2022-08-04T22:08:07.772Z,19.60
2022-08-04T22:13:22.719Z,19.58
2022-08-04T22:18:27.492Z,19.56
2022-08-04T22:23:30.850Z,19.56
2022-08-04T22:28:49.324Z,19.52
2022-08-04T22:33:55.444Z,19.48
2022-08-04T22:39:06.875Z,19.44
2022-08-04T22:44:15.499Z,19.41
2022-08-04T22:49:17.935Z,19.34
2022-08-04T22:54:25.980Z,19.30
2022-08-04T22:59:32.418Z,19.29
2022-08-04T23:04:35.313Z,19.22
2022-08-04T23:09:50.216Z,19.22
2022-08-04T23:15:04.388Z,19.20
2022-08-04T23:20:22.903Z,19.14
2022-08-04T23:25:33.269Z,19.08
2022-08-04T23:30:49.249Z,19.08
2022-08-04T23:35:58.218Z,19.08
2022-08-04T23:41:07.265Z,19.11
2022-08-04T23:46:19.861Z,19.12
2022-08-04T23:51:22.827Z,18.99
2022-08-04T23:56:24.545Z,19.01
